createdAt,value
2022-08-24T00:01:01.372Z,100946.13
2022-08-24T00:03:30.778Z,100948.84
2022-08-24T00:06:02.272Z,100939.97
2022-08-24T00:08:28.957Z,100942.69
2022-08-24T00:10:55.520Z,100936.50
2022-08-24T00:13:22.063Z,100942.75
2022-08-24T00:15:49.764Z,100938.38
2022-08-24T00:18:16.407Z,100940.19
2022-08-24T00:20:45.243Z,100937.59
2022-08-24T00:23:12.419Z,100942.97
2022-08-24T00:25:38.925Z,100945.69
2022-08-24T00:28:06.178Z,100946.63
2022-08-24T00:30:34.176Z,100945.78
2022-08-24T00:33:02.119Z,100934.25
2022-08-24T00:35:28.882Z,100936.06
2022-08-24T00:37:57.078Z,100947.72
2022-08-24T00:40:30.635Z,100939.75
2022-08-24T00:43:03.239Z,100933.53
2022-08-24T00:45:33.903Z,100938.94
2022-08-24T00:48:06.317Z,100939.00
2022-08-24T00:50:40.520Z,100934.59
2022-08-24T00:53:16.163Z,100933.75
2022-08-24T00:55:48.157Z,100935.53
2022-08-24T00:58:23.680Z,100939.16
2022-08-24T01:00:56.724Z,100940.03
2022-08-24T01:03:24.182Z,100936.53
2022-08-24T01:05:50.747Z,100937.44
2022-08-24T01:08:17.245Z,100935.69
2022-08-24T01:10:49.163Z,100944.63
2022-08-24T01:13:16.861Z,100944.63
2022-08-24T01:15:47.884Z,100946.44
2022-08-24T01:18:39.178Z,100940.19
2022-08-24T01:21:14.668Z,100943.84
2022-08-24T01:23:48.555Z,100944.75
2022-08-24T01:26:21.033Z,100947.44
2022-08-24T01:28:51.044Z,100950.16
2022-08-24T01:31:20.807Z,100946.66
2022-08-24T01:33:50.417Z,100944.88
2022-08-24T01:36:38.797Z,100944.00
2022-08-24T01:39:13.731Z,100948.50
2022-08-24T01:41:40.602Z,100945.84
2022-08-24T01:44:07.757Z,100944.09
2022-08-24T01:46:34.855Z,100953.94
2022-08-24T01:49:02.023Z,100953.94
2022-08-24T01:51:33.126Z,100957.56
2022-08-24T01:54:02.817Z,100957.56
2022-08-24T01:56:31.026Z,100954.00
2022-08-24T01:59:00.197Z,100954.94
2022-08-24T02:01:29.107Z,100951.41
2022-08-24T02:03:58.454Z,100956.75
2022-08-24T02:06:27.197Z,100960.34
2022-08-24T02:08:53.913Z,100955.91
2022-08-24T02:11:20.410Z,100958.59
2022-08-24T02:13:47.414Z,100956.88
2022-08-24T02:16:14.867Z,100955.09
2022-08-24T02:18:42.210Z,100956.84
2022-08-24T02:21:09.881Z,100953.31
2022-08-24T02:23:37.871Z,100952.44
2022-08-24T02:26:06.154Z,100948.88
2022-08-24T02:28:33.143Z,100953.34
2022-08-24T02:31:01.119Z,100953.34
2022-08-24T02:33:29.959Z,100959.59
2022-08-24T02:35:57.068Z,100958.69
2022-08-24T02:38:23.816Z,100964.91
2022-08-24T02:40:50.433Z,100950.69
2022-08-24T02:43:17.566Z,100953.38
2022-08-24T02:45:50.199Z,100955.16
2022-08-24T02:48:18.760Z,100963.16
2022-08-24T02:50:49.021Z,100959.63
2022-08-24T02:53:17.217Z,100959.63
2022-08-24T02:55:44.757Z,100958.75
2022-08-24T02:58:16.438Z,100955.19
2022-08-24T03:00:47.302Z,100952.53
2022-08-24T03:03:16.309Z,100959.66
2022-08-24T03:05:42.939Z,100962.34
2022-08-24T03:08:09.534Z,100960.56
2022-08-24T03:10:36.265Z,100957.03
2022-08-24T03:13:04.594Z,100960.59
2022-08-24T03:15:31.363Z,100968.63
2022-08-24T03:17:57.957Z,100972.16
2022-08-24T03:20:25.715Z,100970.38
2022-08-24T03:22:52.952Z,100973.09
2022-08-24T03:25:24.445Z,100976.66
2022-08-24T03:27:52.036Z,100966.00
2022-08-24T03:30:18.815Z,100981.13
2022-08-24T03:32:47.319Z,100984.69
2022-08-24T03:35:15.322Z,100978.47
2022-08-24T03:37:42.366Z,100986.47
2022-08-24T03:40:22.344Z,100985.59
2022-08-24T03:42:53.495Z,100989.13
2022-08-24T03:45:21.526Z,100989.16
2022-08-24T03:47:48.372Z,100985.59
2022-08-24T03:50:14.940Z,100995.38
2022-08-24T03:52:41.903Z,100984.72
2022-08-24T03:55:10.080Z,100989.19
2022-08-24T03:57:36.836Z,100989.19
2022-08-24T04:00:10.770Z,100984.72
2022-08-24T04:02:44.379Z,100989.16
2022-08-24T04:05:15.829Z,100990.06
2022-08-24T04:07:42.395Z,100986.53
2022-08-24T04:10:09.343Z,100983.84
2022-08-24T04:12:35.839Z,100988.28
2022-08-24T04:15:03.349Z,100985.63
2022-08-24T04:17:30.399Z,100985.63
2022-08-24T04:19:58.260Z,100992.75
2022-08-24T04:22:30.297Z,100991.84
2022-08-24T04:24:56.958Z,100990.06
2022-08-24T04:27:23.910Z,100990.97
2022-08-24T04:29:51.140Z,100993.63
2022-08-24T04:32:18.548Z,101009.63
2022-08-24T04:34:45.771Z,100999.84
2022-08-24T04:37:14.628Z,101004.31
2022-08-24T04:39:42.160Z,101006.06
2022-08-24T04:42:22.452Z,101014.97
2022-08-24T04:44:50.471Z,101006.97
2022-08-24T04:47:19.802Z,101000.72
2022-08-24T04:49:47.650Z,100999.88
2022-08-24T04:52:14.513Z,101008.72
2022-08-24T04:54:42.342Z,101009.59
2022-08-24T04:57:14.680Z,101014.06
2022-08-24T04:59:46.706Z,101010.50
2022-08-24T05:02:13.284Z,101020.28
2022-08-24T05:04:40.049Z,101019.41
2022-08-24T05:07:07.403Z,101027.38
2022-08-24T05:09:34.197Z,101022.94
2022-08-24T05:12:02.543Z,101027.38
2022-08-24T05:14:34.051Z,101035.41
2022-08-24T05:17:00.600Z,101021.16
2022-08-24T05:19:30.532Z,101032.72
2022-08-24T05:21:57.061Z,101034.47
2022-08-24T05:24:23.700Z,101029.13
2022-08-24T05:26:52.315Z,101039.78
2022-08-24T05:29:20.482Z,101037.13
2022-08-24T05:31:49.463Z,101038.88
2022-08-24T05:34:16.563Z,101043.28
2022-08-24T05:36:43.922Z,101036.16
2022-08-24T05:39:26.880Z,101039.69
2022-08-24T05:41:55.466Z,101052.13
2022-08-24T05:44:30.666Z,101050.31
2022-08-24T05:47:01.060Z,101055.63
2022-08-24T05:49:28.000Z,101046.66
2022-08-24T05:51:55.109Z,101052.88
2022-08-24T05:54:23.182Z,101045.69
2022-08-24T05:57:04.730Z,101042.97
2022-08-24T05:59:37.799Z,101042.91
2022-08-24T06:02:10.015Z,101043.75
2022-08-24T06:04:38.170Z,101050.81
2022-08-24T06:07:10.114Z,101042.75
2022-08-24T06:09:39.495Z,101041.81
2022-08-24T06:12:07.086Z,101046.19
2022-08-24T06:14:34.592Z,101044.34
2022-08-24T06:17:05.915Z,101051.41
2022-08-24T06:19:33.301Z,101047.75
2022-08-24T06:22:01.407Z,101042.31
2022-08-24T06:24:47.980Z,101045.81
2022-08-24T06:27:23.268Z,101051.13
2022-08-24T06:29:57.122Z,101055.47
2022-08-24T06:32:43.939Z,101045.59
2022-08-24T06:35:16.675Z,101051.72
2022-08-24T06:37:43.332Z,101055.25
2022-08-24T06:40:10.994Z,101051.56
2022-08-24T06:42:38.089Z,101058.59
2022-08-24T06:45:16.401Z,101054.00
2022-08-24T06:47:44.315Z,101061.03
2022-08-24T06:50:11.443Z,101057.38
2022-08-24T06:52:39.572Z,101062.63
2022-08-24T06:55:07.034Z,101064.25
2022-08-24T06:57:33.685Z,101058.75
2022-08-24T07:00:00.168Z,101063.09
2022-08-24T07:02:26.957Z,101062.13
2022-08-24T07:04:53.668Z,101063.81
2022-08-24T07:07:39.064Z,101062.75
2022-08-24T07:10:09.266Z,101065.28
2022-08-24T07:12:36.736Z,101070.50
2022-08-24T07:15:04.409Z,101077.50
2022-08-24T07:17:38.302Z,101072.81
2022-08-24T07:20:06.198Z,101082.50
2022-08-24T07:22:55.543Z,101083.19
2022-08-24T07:25:22.378Z,101084.88
2022-08-24T07:27:52.260Z,101087.34
2022-08-24T07:30:27.054Z,101087.19
2022-08-24T07:32:57.265Z,101098.66
2022-08-24T07:35:26.735Z,101089.53
2022-08-24T07:37:55.360Z,101098.34
2022-08-24T07:40:23.673Z,101099.06
2022-08-24T07:42:52.362Z,101091.72
2022-08-24T07:45:19.834Z,101095.94
2022-08-24T07:50:37.336Z,101086.66
2022-08-24T07:53:05.213Z,101087.31
2022-08-24T07:55:33.145Z,101087.97
2022-08-24T07:58:00.313Z,101095.78
2022-08-24T08:00:27.028Z,101100.84
2022-08-24T08:02:59.186Z,101095.22
2022-08-24T08:05:25.825Z,101095.00
2022-08-24T08:07:53.816Z,101101.97
2022-08-24T08:10:21.891Z,101095.50
2022-08-24T08:12:48.771Z,101097.09
2022-08-24T08:15:15.258Z,101095.97
2022-08-24T08:17:56.050Z,101101.13
2022-08-24T08:20:23.491Z,101103.66
2022-08-24T08:23:09.303Z,101100.72
2022-08-24T08:25:54.618Z,101095.09
2022-08-24T08:28:35.533Z,101106.47
2022-08-24T08:31:04.114Z,101098.22
2022-08-24T08:33:33.219Z,101099.88
2022-08-24T08:36:04.825Z,101099.75
2022-08-24T08:38:32.436Z,101101.41
2022-08-24T08:41:01.894Z,101100.34
2022-08-24T08:43:39.580Z,101102.84
2022-08-24T08:46:24.214Z,101097.28
2022-08-24T08:49:59.030Z,101096.13
2022-08-24T08:52:34.928Z,101103.16
2022-08-24T08:55:21.893Z,101092.19
2022-08-24T08:58:06.507Z,101091.94
2022-08-24T09:01:07.606Z,101098.03
2022-08-24T09:03:52.599Z,101092.50
2022-08-24T09:07:08.445Z,101086.81
2022-08-24T09:09:52.563Z,101082.19
2022-08-24T09:12:43.557Z,101076.63
2022-08-24T09:15:45.899Z,101079.16
2022-08-24T09:18:49.665Z,101078.84
2022-08-24T09:21:38.162Z,101077.66
2022-08-24T09:24:39.958Z,101070.22
2022-08-24T09:27:43.296Z,101071.81
2022-08-24T09:30:23.467Z,101069.78
2022-08-24T09:33:13.690Z,101073.13
2022-08-24T09:35:57.369Z,101077.44
2022-08-24T09:38:42.699Z,101070.94
2022-08-24T09:41:28.187Z,101079.88
2022-08-24T09:44:27.776Z,101075.09
2022-08-24T09:47:20.648Z,101077.47
2022-08-24T09:50:05.894Z,101072.72
2022-08-24T09:52:58.103Z,101072.63
2022-08-24T09:55:52.713Z,101076.06
2022-08-24T09:58:57.540Z,101074.06
2022-08-24T10:01:41.745Z,101061.31
2022-08-24T10:04:34.676Z,101070.06
2022-08-24T10:07:18.230Z,101067.16
2022-08-24T10:09:50.509Z,101068.81
2022-08-24T10:12:46.849Z,101065.13
2022-08-24T10:15:28.091Z,101067.69
2022-08-24T10:18:09.884Z,101063.91
2022-08-24T10:21:04.464Z,101061.97
2022-08-24T10:23:55.126Z,101056.38
2022-08-24T10:26:59.301Z,101054.34
2022-08-24T10:29:58.882Z,101057.75
2022-08-24T10:32:41.094Z,101056.84
2022-08-24T10:35:28.594Z,101047.81
2022-08-24T10:38:53.061Z,101049.44
2022-08-24T10:41:19.562Z,101054.56
2022-08-24T10:44:24.238Z,101049.81
2022-08-24T10:46:59.574Z,101043.22
2022-08-24T10:49:37.332Z,101040.47
2022-08-24T10:52:22.141Z,101034.94
2022-08-24T10:54:48.837Z,101035.81
2022-08-24T10:57:28.495Z,101036.69
2022-08-24T11:00:18.286Z,101032.81
2022-08-24T11:02:49.824Z,101036.25
2022-08-24T11:05:38.281Z,101032.41
2022-08-24T11:08:06.956Z,101039.41
2022-08-24T11:10:37.413Z,101034.59
2022-08-24T11:13:24.778Z,101037.13
2022-08-24T11:15:54.484Z,101032.41
2022-08-24T11:18:22.499Z,101033.09
2022-08-24T11:20:52.922Z,101028.34
2022-08-24T11:23:29.609Z,101031.72
2022-08-24T11:26:03.988Z,101021.63
2022-08-24T11:28:39.041Z,101021.59
2022-08-24T11:31:11.068Z,101026.75
2022-08-24T11:33:50.724Z,101026.38
2022-08-24T11:36:21.206Z,101025.13
2022-08-24T11:38:49.523Z,101026.53
2022-08-24T11:41:33.027Z,101022.75
2022-08-24T11:44:16.700Z,101022.44
2022-08-24T11:46:57.477Z,101019.66
2022-08-24T11:49:48.527Z,101015.94
2022-08-24T11:52:51.714Z,101026.66
2022-08-24T11:55:57.589Z,101018.31
2022-08-24T11:58:45.212Z,101022.59
2022-08-24T12:01:32.904Z,101020.75
2022-08-24T12:04:26.038Z,101019.72
2022-08-24T12:07:17.000Z,101025.00
2022-08-24T12:10:28.552Z,101007.72
2022-08-24T12:13:06.535Z,101013.72
2022-08-24T12:15:52.133Z,101009.13
2022-08-24T12:18:29.518Z,101016.25
2022-08-24T12:20:57.882Z,101014.31
2022-08-24T12:23:27.256Z,101014.16
2022-08-24T12:26:01.983Z,101001.41
2022-08-24T12:28:37.419Z,101003.03
2022-08-24T12:31:12.913Z,100993.91
2022-08-24T12:33:46.334Z,101000.97
2022-08-24T12:36:36.417Z,101005.16
2022-08-24T12:39:13.592Z,101002.16
2022-08-24T12:41:58.012Z,101005.53
2022-08-24T12:44:31.151Z,101007.88
2022-08-24T12:46:57.882Z,101009.56
2022-08-24T12:49:33.715Z,101015.00
2022-08-24T12:52:03.411Z,101010.50
2022-08-24T12:54:56.346Z,101007.78
2022-08-24T12:57:39.635Z,101009.50
2022-08-24T13:00:37.040Z,101013.03
2022-08-24T13:03:08.095Z,101009.25
2022-08-24T13:05:48.471Z,101004.47
2022-08-24T13:08:32.118Z,101006.84
2022-08-24T13:11:07.124Z,101003.94
2022-08-24T13:13:47.910Z,100996.59
2022-08-24T13:16:51.743Z,100992.91
2022-08-24T13:19:40.239Z,100996.34
2022-08-24T13:22:09.953Z,100989.81
2022-08-24T13:24:37.624Z,100994.22
2022-08-24T13:27:13.300Z,100990.53
2022-08-24T13:29:49.217Z,100990.53
2022-08-24T13:32:22.586Z,100995.16
2022-08-24T13:34:51.343Z,100995.88
2022-08-24T13:37:23.524Z,100992.16
2022-08-24T13:40:09.889Z,100988.31
2022-08-24T13:43:03.011Z,100990.06
2022-08-24T13:45:46.663Z,100989.09
2022-08-24T13:48:18.340Z,100991.75
2022-08-24T13:50:56.624Z,100993.50
2022-08-24T13:54:18.838Z,100986.25
2022-08-24T13:57:06.171Z,100992.50
2022-08-24T13:59:59.116Z,100984.25
2022-08-24T14:02:40.160Z,100989.53
2022-08-24T14:05:28.670Z,100988.41
2022-08-24T14:08:44.176Z,100984.88
2022-08-24T14:11:32.659Z,100991.06
2022-08-24T14:14:21.166Z,100987.44
2022-08-24T14:17:40.431Z,100982.88
2022-08-24T14:20:41.181Z,100980.91
2022-08-24T14:23:37.009Z,100978.81
2022-08-24T14:26:34.573Z,100974.34
2022-08-24T14:29:19.505Z,100977.78
2022-08-24T14:31:58.604Z,100981.31
2022-08-24T14:34:42.011Z,100976.75
2022-08-24T14:37:14.404Z,100975.50
2022-08-24T14:40:23.477Z,100976.38
2022-08-24T14:42:56.518Z,100965.25
2022-08-24T14:45:22.993Z,100967.91
2022-08-24T14:48:11.400Z,100963.47
2022-08-24T14:50:43.326Z,100969.81
2022-08-24T14:53:59.567Z,100964.38
2022-08-24T14:56:50.644Z,100968.69
2022-08-24T14:59:42.265Z,100964.16
2022-08-24T15:02:46.396Z,100958.63
2022-08-24T15:05:25.436Z,100947.56
2022-08-24T15:08:26.753Z,100951.09
2022-08-24T15:11:02.396Z,100952.84
2022-08-24T15:13:46.938Z,100952.84
2022-08-24T15:16:14.752Z,100945.47
2022-08-24T15:19:02.068Z,100957.97
2022-08-24T15:21:49.590Z,100940.69
2022-08-24T15:24:29.006Z,100942.53
2022-08-24T15:27:34.549Z,100936.91
2022-08-24T15:30:05.052Z,100930.44
2022-08-24T15:32:51.775Z,100940.97
2022-08-24T15:35:31.241Z,100948.00
2022-08-24T15:37:58.133Z,100941.34
2022-08-24T15:40:29.795Z,100947.34
2022-08-24T15:43:04.153Z,100941.06
2022-08-24T15:45:32.618Z,100938.13
2022-08-24T15:48:01.566Z,100943.88
2022-08-24T15:50:33.480Z,100935.66
2022-08-24T15:53:08.319Z,100940.59
2022-08-24T15:55:38.718Z,100940.09
2022-08-24T15:58:20.775Z,100942.47
2022-08-24T16:01:06.988Z,100941.97
2022-08-24T16:03:46.979Z,100942.03
2022-08-24T16:06:25.955Z,100942.09
2022-08-24T16:09:13.023Z,100932.53
2022-08-24T16:11:48.938Z,100950.56
2022-08-24T16:14:31.188Z,100950.06
2022-08-24T16:16:58.909Z,100951.91
2022-08-24T16:19:33.357Z,100951.16
2022-08-24T16:22:09.025Z,100946.16
2022-08-24T16:24:38.745Z,100952.13
2022-08-24T16:27:10.515Z,100950.41
2022-08-24T16:29:37.201Z,100959.47
2022-08-24T16:32:22.081Z,100961.78
2022-08-24T16:35:09.726Z,100966.84
2022-08-24T16:37:37.371Z,100966.88
2022-08-24T16:40:05.281Z,100973.81
2022-08-24T16:42:32.949Z,100965.88
2022-08-24T16:44:59.584Z,100971.59
2022-08-24T16:47:28.148Z,100977.91
2022-08-24T16:49:55.203Z,100969.72
2022-08-24T16:52:21.983Z,100971.94
2022-08-24T16:54:49.005Z,100970.28
2022-08-24T16:57:18.798Z,100971.75
2022-08-24T16:59:48.209Z,100975.72
2022-08-24T17:02:17.020Z,100970.13
2022-08-24T17:04:44.203Z,100974.09
2022-08-24T17:07:13.754Z,100969.69
2022-08-24T17:09:43.168Z,100969.34
2022-08-24T17:12:10.061Z,100974.69
2022-08-24T17:14:39.372Z,100968.88
2022-08-24T17:17:07.788Z,100964.09
2022-08-24T17:19:35.555Z,100961.97
2022-08-24T17:22:03.673Z,100968.19
2022-08-24T17:24:30.240Z,100967.03
2022-08-24T17:26:56.883Z,100969.75
2022-08-24T17:29:24.899Z,100968.09
2022-08-24T17:31:51.847Z,100969.00
2022-08-24T17:34:21.239Z,100974.31
2022-08-24T17:36:49.598Z,100973.53
2022-08-24T17:39:17.936Z,100979.66
2022-08-24T17:41:44.447Z,100980.00
2022-08-24T17:44:25.074Z,100977.31
2022-08-24T17:46:54.163Z,100978.06
2022-08-24T17:49:21.205Z,100990.38
2022-08-24T17:51:49.232Z,100985.94
2022-08-24T17:54:17.237Z,100988.72
2022-08-24T17:56:46.480Z,100991.31
2022-08-24T17:59:20.393Z,100996.66
2022-08-24T18:01:48.073Z,100996.34
2022-08-24T18:04:14.995Z,100995.09
2022-08-24T18:06:41.839Z,101001.78
2022-08-24T18:09:26.505Z,101006.75
2022-08-24T18:11:53.033Z,101000.84
2022-08-24T18:14:19.689Z,101010.09
2022-08-24T18:16:50.139Z,101011.22
2022-08-24T18:19:22.876Z,100999.72
2022-08-24T18:21:51.713Z,101012.44
2022-08-24T18:24:18.410Z,101012.53
2022-08-24T18:26:48.024Z,101025.28
2022-08-24T18:29:18.801Z,101021.59
2022-08-24T18:31:48.217Z,101022.38
2022-08-24T18:34:21.753Z,101021.41
2022-08-24T18:36:48.759Z,101023.03
2022-08-24T18:39:16.167Z,101028.28
2022-08-24T18:41:49.514Z,101027.16
2022-08-24T18:44:21.721Z,101027.84
2022-08-24T18:46:49.058Z,101031.09
2022-08-24T18:49:17.805Z,101038.91
2022-08-24T18:51:48.022Z,101042.19
2022-08-24T18:54:21.215Z,101047.28
2022-08-24T18:56:48.775Z,101044.22
2022-08-24T18:59:18.495Z,101045.63
2022-08-24T19:02:05.781Z,101052.50
2022-08-24T19:04:33.178Z,101055.69
2022-08-24T19:07:00.749Z,101056.13
2022-08-24T19:09:32.046Z,101053.88
2022-08-24T19:12:00.751Z,101054.25
2022-08-24T19:14:27.261Z,101050.09
2022-08-24T19:16:53.816Z,101054.16
2022-08-24T19:19:22.441Z,101059.00
2022-08-24T19:21:49.410Z,101058.56
2022-08-24T19:24:19.019Z,101057.09
2022-08-24T19:26:45.527Z,101062.88
2022-08-24T19:29:12.042Z,101071.34
2022-08-24T19:31:38.780Z,101065.31
2022-08-24T19:34:06.022Z,101072.88
2022-08-24T19:36:32.907Z,101071.31
2022-08-24T19:38:59.778Z,101072.50
2022-08-24T19:41:36.464Z,101076.44
2022-08-24T19:44:27.504Z,101081.28
2022-08-24T19:46:55.541Z,101078.06
2022-08-24T19:49:22.189Z,101071.06
2022-08-24T19:51:49.620Z,101074.06
2022-08-24T19:54:16.629Z,101074.31
2022-08-24T19:56:43.160Z,101075.47
2022-08-24T19:59:24.535Z,101072.13
2022-08-24T20:01:51.413Z,101072.31
2022-08-24T20:04:18.131Z,101076.16
2022-08-24T20:06:45.779Z,101074.59
2022-08-24T20:09:12.332Z,101078.44
2022-08-24T20:11:39.563Z,101068.81
2022-08-24T20:14:06.807Z,101069.00
2022-08-24T20:16:42.095Z,101073.75
2022-08-24T20:19:11.268Z,101074.94
2022-08-24T20:21:38.580Z,101086.81
2022-08-24T20:24:06.333Z,101081.69
2022-08-24T20:26:39.244Z,101081.84
2022-08-24T20:29:05.961Z,101077.50
2022-08-24T20:31:32.659Z,101076.81
2022-08-24T20:33:59.434Z,101080.66
2022-08-24T20:36:36.326Z,101079.03
2022-08-24T20:39:05.222Z,101084.63
2022-08-24T20:41:32.175Z,101087.50
2022-08-24T20:43:59.157Z,101085.84
2022-08-24T20:46:27.003Z,101086.06
2022-08-24T20:48:55.493Z,101081.66
2022-08-24T20:51:24.349Z,101080.03
2022-08-24T20:53:50.953Z,101078.34
2022-08-24T20:56:31.225Z,101079.41
2022-08-24T20:59:01.212Z,101080.38
2022-08-24T21:01:27.784Z,101078.72
2022-08-24T21:03:54.373Z,101076.16
2022-08-24T21:06:21.333Z,101071.72
2022-08-24T21:08:50.682Z,101078.19
2022-08-24T21:11:17.994Z,101075.63
2022-08-24T21:13:44.630Z,101068.53
2022-08-24T21:16:13.663Z,101076.75
2022-08-24T21:18:41.487Z,101078.66
2022-08-24T21:21:08.566Z,101071.53
2022-08-24T21:23:35.625Z,101073.41
2022-08-24T21:26:06.511Z,101074.41
2022-08-24T21:28:35.628Z,101071.84
2022-08-24T21:31:06.183Z,101079.13
2022-08-24T21:33:52.631Z,101073.84
2022-08-24T21:36:23.533Z,101070.34
2022-08-24T21:38:52.102Z,101079.38
2022-08-24T21:41:21.698Z,101075.03
2022-08-24T21:43:48.304Z,101084.13
2022-08-24T21:46:15.178Z,101080.59
2022-08-24T21:48:41.704Z,101082.47
2022-08-24T21:51:08.395Z,101083.47
2022-08-24T21:53:34.918Z,101086.22
2022-08-24T21:56:02.353Z,101085.44
2022-08-24T21:58:29.504Z,101081.03
2022-08-24T22:00:59.601Z,101086.47
2022-08-24T22:03:34.707Z,101084.75
2022-08-24T22:06:10.941Z,101092.94
2022-08-24T22:08:39.704Z,101086.72
2022-08-24T22:11:06.380Z,101096.69
2022-08-24T22:13:34.019Z,101091.38
2022-08-24T22:16:00.631Z,101088.75
2022-08-24T22:18:27.207Z,101087.09
2022-08-24T22:20:53.687Z,101082.66
2022-08-24T22:23:20.176Z,101081.84
2022-08-24T22:25:53.530Z,101081.94
2022-08-24T22:28:20.982Z,101082.88
2022-08-24T22:30:48.924Z,101074.88
2022-08-24T22:33:16.183Z,101074.13
2022-08-24T22:35:44.953Z,101066.16
2022-08-24T22:38:12.674Z,101068.03
2022-08-24T22:40:39.508Z,101062.75
2022-08-24T22:43:06.176Z,101073.56
2022-08-24T22:45:32.704Z,101070.06
2022-08-24T22:47:59.212Z,101070.22
2022-08-24T22:50:25.764Z,101079.25
2022-08-24T22:52:53.329Z,101082.91
2022-08-24T22:55:20.324Z,101078.50
2022-08-24T22:57:51.051Z,101083.09
2022-08-24T23:00:18.463Z,101075.16
2022-08-24T23:02:44.974Z,101078.81
2022-08-24T23:05:11.555Z,101077.13
2022-08-24T23:07:38.074Z,101074.53
2022-08-24T23:10:06.195Z,101081.78
2022-08-24T23:12:33.045Z,101077.38
2022-08-24T23:15:00.100Z,101073.84
2022-08-24T23:17:26.758Z,101075.69
2022-08-24T23:20:06.466Z,101080.22
2022-08-24T23:22:36.592Z,101076.69
2022-08-24T23:25:05.740Z,101067.78
2022-08-24T23:27:38.217Z,101075.03
2022-08-24T23:30:07.828Z,101067.88
2022-08-24T23:32:34.408Z,101067.97
2022-08-24T23:35:01.075Z,101064.41
2022-08-24T23:37:28.097Z,101065.34
2022-08-24T23:39:54.636Z,101066.31
2022-08-24T23:42:21.170Z,101068.13
2022-08-24T23:44:47.635Z,101068.13
2022-08-24T23:47:14.214Z,101066.34
2022-08-24T23:49:41.707Z,101052.03
2022-08-24T23:52:08.807Z,101061.91
2022-08-24T23:54:52.799Z,101057.44
2022-08-24T23:57:19.313Z,101056.56
2022-08-24T23:59:45.800Z,101057.47
